Time;durP1;ratioP1;P1;durP2;ratioP2;P2;SDS_P1;SDS_P2;PMS_P1;PMS_P2;Temp;Humidity;BMP_temperature;BMP_pressure;BME280_temperature;BME280_humidity;BME280_pressure;Samples;Min_cycle;Max_cycle;Signal;HPM_P1;HPM_P2
2024/03/17 00:01:10;;;;;;;23.58;6.80;;;;;;;;;;5051533;28;20475;-77
2024/03/17 00:03:36;;;;;;;24.05;6.18;;;;;;;;;;5052149;28;20046;-76
2024/03/17 00:06:01;;;;;;;18.65;5.75;;;;;;;;;;5052029;28;20037;-76
2024/03/17 00:08:27;;;;;;;22.58;5.82;;;;;;;;;;5051630;28;20364;-77
2024/03/17 00:10:57;;;;;;;19.83;6.18;;;;;;;;;;5050210;28;20047;-76
2024/03/17 00:13:24;;;;;;;17.48;5.80;;;;;;;;;;5049446;28;20041;-77
2024/03/17 00:15:50;;;;;;;19.58;6.35;;;;;;;;;;5049593;28;20569;-76
2024/03/17 00:18:16;;;;;;;15.30;5.45;;;;;;;;;;5051436;28;20556;-76
2024/03/17 00:20:42;;;;;;;13.13;5.07;;;;;;;;;;5052985;28;20066;-77
2024/03/17 00:23:11;;;;;;;18.80;5.75;;;;;;;;;;5052401;28;20036;-77
2024/03/17 00:25:38;;;;;;;20.23;6.18;;;;;;;;;;5054017;28;20052;-76
2024/03/17 00:28:04;;;;;;;18.08;5.97;;;;;;;;;;5053891;28;20041;-77
2024/03/17 00:30:31;;;;;;;15.52;6.00;;;;;;;;;;5054691;28;20046;-76
2024/03/17 00:32:58;;;;;;;17.23;6.28;;;;;;;;;;5054960;28;20039;-77
2024/03/17 00:35:24;;;;;;;20.17;6.95;;;;;;;;;;5054440;28;20479;-76
2024/03/17 00:37:50;;;;;;;18.20;6.45;;;;;;;;;;5054826;28;20047;-77
2024/03/17 00:40:18;;;;;;;18.00;6.05;;;;;;;;;;5054320;28;20037;-77
2024/03/17 00:42:47;;;;;;;19.67;6.53;;;;;;;;;;5054991;28;20048;-76
2024/03/17 00:45:13;;;;;;;25.02;6.70;;;;;;;;;;5054422;28;20279;-77
2024/03/17 00:47:39;;;;;;;19.08;5.85;;;;;;;;;;5054769;28;20045;-77
2024/03/17 00:50:08;;;;;;;16.35;5.72;;;;;;;;;;5054603;28;20033;-78
2024/03/17 00:52:34;;;;;;;17.13;5.30;;;;;;;;;;5054847;28;20039;-77
2024/03/17 00:55:00;;;;;;;16.63;5.20;;;;;;;;;;5054829;28;20089;-77
2024/03/17 00:57:26;;;;;;;16.75;4.85;;;;;;;;;;5054431;28;20048;-76
2024/03/17 00:59:52;;;;;;;14.52;5.22;;;;;;;;;;5054842;28;20047;-76
2024/03/17 01:02:18;;;;;;;24.15;5.57;;;;;;;;;;5054120;28;20101;-77
2024/03/17 01:04:45;;;;;;;20.75;5.43;;;;;;;;;;5054887;28;20036;-78
2024/03/17 01:07:11;;;;;;;24.33;5.28;;;;;;;;;;5054134;28;20475;-78
2024/03/17 01:09:37;;;;;;;17.77;4.38;;;;;;;;;;5054680;28;20037;-77
2024/03/17 01:12:03;;;;;;;27.50;5.70;;;;;;;;;;5054758;28;20093;-76
2024/03/17 01:14:30;;;;;;;14.80;5.00;;;;;;;;;;5054320;28;20060;-77
2024/03/17 01:16:56;;;;;;;14.13;4.47;;;;;;;;;;5054587;28;20041;-77
2024/03/17 01:19:23;;;;;;;14.13;4.18;;;;;;;;;;5053904;28;20044;-74
2024/03/17 01:21:49;;;;;;;15.23;3.92;;;;;;;;;;5054329;28;20041;-74
2024/03/17 01:24:17;;;;;;;15.20;3.70;;;;;;;;;;5053890;28;20364;-74
2024/03/17 01:26:42;;;;;;;15.45;4.63;;;;;;;;;;5054238;28;20040;-74
2024/03/17 01:29:08;;;;;;;12.32;3.55;;;;;;;;;;5055840;28;20048;-78
2024/03/17 01:31:35;;;;;;;16.35;3.92;;;;;;;;;;5058119;28;20047;-78
2024/03/17 01:34:01;;;;;;;15.82;4.07;;;;;;;;;;5058257;28;20037;-78
2024/03/17 01:36:26;;;;;;;16.52;4.25;;;;;;;;;;5057674;28;20043;-76
2024/03/17 01:38:52;;;;;;;15.95;4.80;;;;;;;;;;5057853;28;20124;-75
2024/03/17 01:41:18;;;;;;;27.23;5.07;;;;;;;;;;5057658;28;20416;-77
2024/03/17 01:43:44;;;;;;;17.75;4.40;;;;;;;;;;5057795;28;20044;-77
2024/03/17 01:46:13;;;;;;;15.73;4.88;;;;;;;;;;5057612;28;20528;-77
2024/03/17 01:48:42;;;;;;;14.10;4.10;;;;;;;;;;5058024;28;20421;-75
2024/03/17 01:51:14;;;;;;;11.32;3.90;;;;;;;;;;5057451;28;20032;-74
2024/03/17 01:53:42;;;;;;;15.07;3.63;;;;;;;;;;5058015;28;20052;-74
2024/03/17 01:56:10;;;;;;;11.88;3.25;;;;;;;;;;5057226;28;20044;-75
2024/03/17 01:58:36;;;;;;;9.68;2.80;;;;;;;;;;5057480;28;20177;-78
2024/03/17 02:01:04;;;;;;;9.38;3.00;;;;;;;;;;5057760;28;20040;-77
2024/03/17 02:03:30;;;;;;;8.43;3.22;;;;;;;;;;5057462;28;20473;-75
2024/03/17 02:05:57;;;;;;;7.63;2.97;;;;;;;;;;5057399;28;20041;-78
2024/03/17 02:08:24;;;;;;;9.55;3.55;;;;;;;;;;5040785;28;20052;-76
2024/03/17 02:10:55;;;;;;;10.00;3.05;;;;;;;;;;5057451;28;20085;-77
2024/03/17 02:13:21;;;;;;;10.10;3.28;;;;;;;;;;5056968;28;20513;-77
2024/03/17 02:15:47;;;;;;;10.30;3.10;;;;;;;;;;5057359;28;20085;-77
2024/03/17 02:18:13;;;;;;;11.60;3.33;;;;;;;;;;5056592;28;20467;-76
2024/03/17 02:20:55;;;;;;;13.73;3.60;;;;;;;;;;5057507;28;20089;-77
2024/03/17 02:23:21;;;;;;;13.32;3.75;;;;;;;;;;5057060;28;20048;-77
2024/03/17 02:25:48;;;;;;;15.30;3.65;;;;;;;;;;5040319;28;20466;-76
2024/03/17 02:28:14;;;;;;;11.27;4.18;;;;;;;;;;5036874;28;20391;-77
2024/03/17 02:30:39;;;;;;;13.93;4.03;;;;;;;;;;5037308;28;20059;-77
2024/03/17 02:33:05;;;;;;;10.30;4.00;;;;;;;;;;5036687;28;20399;-77
2024/03/17 02:35:31;;;;;;;10.10;3.60;;;;;;;;;;5050247;28;20055;-76
2024/03/17 02:37:57;;;;;;;10.90;3.58;;;;;;;;;;5057136;28;20170;-77
2024/03/17 02:40:23;;;;;;;10.75;2.75;;;;;;;;;;5056033;28;20094;-76
2024/03/17 02:42:48;;;;;;;9.10;2.75;;;;;;;;;;5056904;28;20124;-77
2024/03/17 02:45:14;;;;;;;9.85;2.75;;;;;;;;;;5056470;28;20036;-77
2024/03/17 02:47:41;;;;;;;6.18;2.35;;;;;;;;;;5056739;28;20364;-77
2024/03/17 02:50:07;;;;;;;6.70;2.00;;;;;;;;;;5056436;28;20042;-76
2024/03/17 02:52:33;;;;;;;5.13;2.15;;;;;;;;;;5056965;28;20047;-76
2024/03/17 02:54:59;;;;;;;7.57;2.28;;;;;;;;;;5056515;28;20041;-77
2024/03/17 02:57:29;;;;;;;5.85;2.20;;;;;;;;;;5056356;28;20048;-78
2024/03/17 02:59:56;;;;;;;10.80;1.90;;;;;;;;;;5056420;28;20037;-77
2024/03/17 03:02:22;;;;;;;3.70;1.77;;;;;;;;;;5056005;28;20111;-76
2024/03/17 03:04:48;;;;;;;7.05;1.63;;;;;;;;;;5056593;28;20045;-77
2024/03/17 03:07:14;;;;;;;5.65;1.80;;;;;;;;;;5056108;28;20422;-77
2024/03/17 03:09:40;;;;;;;6.43;1.75;;;;;;;;;;5056646;28;20040;-77
2024/03/17 03:12:07;;;;;;;5.95;1.73;;;;;;;;;;5056179;28;20049;-77
2024/03/17 03:14:33;;;;;;;5.78;1.70;;;;;;;;;;5056384;28;20055;-76
2024/03/17 03:16:59;;;;;;;3.47;1.42;;;;;;;;;;5056302;28;20051;-77
2024/03/17 03:19:26;;;;;;;5.22;1.90;;;;;;;;;;5055472;28;20057;-77
2024/03/17 03:21:52;;;;;;;5.97;1.85;;;;;;;;;;5056271;28;20032;-77
2024/03/17 03:24:18;;;;;;;7.32;2.00;;;;;;;;;;5055803;28;20033;-77
2024/03/17 03:26:44;;;;;;;6.05;1.83;;;;;;;;;;5055946;28;20352;-77
2024/03/17 03:29:10;;;;;;;5.32;1.83;;;;;;;;;;5039153;28;20503;-76
2024/03/17 03:31:39;;;;;;;6.97;1.70;;;;;;;;;;5056041;28;20041;-77
2024/03/17 03:34:07;;;;;;;8.45;1.45;;;;;;;;;;5055467;28;20047;-76
2024/03/17 03:36:34;;;;;;;3.70;1.40;;;;;;;;;;5056005;28;20055;-77
2024/03/17 03:38:59;;;;;;;7.85;1.90;;;;;;;;;;5056064;28;20051;-77
2024/03/17 03:41:25;;;;;;;17.45;2.65;;;;;;;;;;5055468;28;20040;-77
2024/03/17 03:43:51;;;;;;;8.32;2.08;;;;;;;;;;5055890;28;20079;-76
2024/03/17 03:46:17;;;;;;;4.80;2.05;;;;;;;;;;5054966;28;20494;-77
2024/03/17 03:48:43;;;;;;;4.13;1.50;;;;;;;;;;5055878;28;20046;-77
2024/03/17 03:51:10;;;;;;;4.82;1.55;;;;;;;;;;5054542;28;20037;-76
2024/03/17 03:53:37;;;;;;;2.83;1.20;;;;;;;;;;5055624;28;20090;-77
2024/03/17 03:56:07;;;;;;;1.88;1.10;;;;;;;;;;5055459;28;20085;-77
2024/03/17 03:58:35;;;;;;;2.70;1.00;;;;;;;;;;5055310;28;20044;-76
2024/03/17 04:01:08;;;;;;;3.95;1.08;;;;;;;;;;5055498;28;20040;-77
2024/03/17 04:03:34;;;;;;;1.77;0.90;;;;;;;;;;5055155;28;20384;-77
2024/03/17 04:06:09;;;;;;;1.77;0.68;;;;;;;;;;5055465;28;20047;-76
2024/03/17 04:08:41;;;;;;;2.83;1.00;;;;;;;;;;5055290;28;20047;-77
2024/03/17 04:11:08;;;;;;;2.97;1.40;;;;;;;;;;5055001;28;20044;-77
2024/03/17 04:13:34;;;;;;;2.08;1.10;;;;;;;;;;5055315;28;20048;-77
2024/03/17 04:16:01;;;;;;;10.43;1.27;;;;;;;;;;5055104;28;20049;-77
2024/03/17 04:18:30;;;;;;;20.40;1.92;;;;;;;;;;5054505;28;20051;-76
2024/03/17 04:20:57;;;;;;;19.85;2.28;;;;;;;;;;5055198;28;20112;-77
2024/03/17 04:23:23;;;;;;;74.47;4.45;;;;;;;;;;5054776;28;20037;-76
2024/03/17 04:25:51;;;;;;;212.25;8.10;;;;;;;;;;5055038;28;20048;-77
2024/03/17 04:28:17;;;;;;;122.13;5.13;;;;;;;;;;5038177;28;20032;-77
2024/03/17 04:30:43;;;;;;;302.00;9.80;;;;;;;;;;5038581;28;20029;-77
2024/03/17 04:33:11;;;;;;;166.18;7.72;;;;;;;;;;5054649;28;20037;-77
2024/03/17 04:35:37;;;;;;;234.27;8.60;;;;;;;;;;5054785;28;20380;-77
2024/03/17 04:38:03;;;;;;;135.30;6.00;;;;;;;;;;5055019;28;20098;-76
2024/03/17 04:40:30;;;;;;;208.23;8.02;;;;;;;;;;5054700;28;20408;-77
2024/03/17 04:42:56;;;;;;;179.70;7.90;;;;;;;;;;5054939;28;20037;-76
2024/03/17 04:45:22;;;;;;;296.08;9.50;;;;;;;;;;5054581;28;20040;-77
2024/03/17 04:47:47;;;;;;;170.60;8.05;;;;;;;;;;5054999;28;20105;-77
2024/03/17 04:50:13;;;;;;;297.73;10.93;;;;;;;;;;5054313;28;20085;-76
2024/03/17 04:52:39;;;;;;;270.15;10.90;;;;;;;;;;5054937;28;20429;-77
2024/03/17 04:55:05;;;;;;;147.25;9.20;;;;;;;;;;5054461;28;20037;-76
2024/03/17 04:57:30;;;;;;;146.73;7.53;;;;;;;;;;5038499;28;20356;-77
2024/03/17 04:59:56;;;;;;;240.88;9.52;;;;;;;;;;5054684;28;20086;-76
2024/03/17 05:02:23;;;;;;;218.65;8.85;;;;;;;;;;5054689;28;20045;-76
2024/03/17 05:04:50;;;;;;;169.02;8.50;;;;;;;;;;5059103;28;20040;-76
2024/03/17 05:07:16;;;;;;;161.95;8.27;;;;;;;;;;5058440;28;20037;-77
2024/03/17 05:09:43;;;;;;;174.68;9.32;;;;;;;;;;5058613;28;20049;-77
2024/03/17 05:12:10;;;;;;;147.52;8.25;;;;;;;;;;5058255;28;20493;-76
2024/03/17 05:14:35;;;;;;;123.65;7.22;;;;;;;;;;5058697;28;20463;-76
2024/03/17 05:17:01;;;;;;;121.82;7.65;;;;;;;;;;5042079;28;20047;-76
2024/03/17 05:19:27;;;;;;;129.07;8.52;;;;;;;;;;5057913;28;20041;-77
2024/03/17 05:21:53;;;;;;;110.97;7.60;;;;;;;;;;5042023;28;20044;-77
2024/03/17 05:24:19;;;;;;;121.03;7.60;;;;;;;;;;5057966;28;20048;-77
2024/03/17 05:26:48;;;;;;;127.65;8.88;;;;;;;;;;5058406;28;20047;-77
2024/03/17 05:29:13;;;;;;;64.35;6.80;;;;;;;;;;5057953;28;20048;-77
2024/03/17 05:31:39;;;;;;;52.83;7.28;;;;;;;;;;5058177;28;20063;-77
2024/03/17 05:34:10;;;;;;;75.45;7.85;;;;;;;;;;5057854;28;20425;-76
2024/03/17 05:36:36;;;;;;;63.72;7.32;;;;;;;;;;5058115;28;20047;-77
2024/03/17 05:39:03;;;;;;;73.15;6.50;;;;;;;;;;5058004;28;20052;-77
2024/03/17 05:41:28;;;;;;;50.38;5.78;;;;;;;;;;5041414;28;20045;-76
2024/03/17 05:43:58;;;;;;;51.90;6.72;;;;;;;;;;5058209;28;20041;-77
2024/03/17 05:46:28;;;;;;;29.23;5.63;;;;;;;;;;5057635;28;20055;-77
2024/03/17 05:48:54;;;;;;;50.00;7.22;;;;;;;;;;5057943;28;20485;-77
2024/03/17 05:51:20;;;;;;;39.67;6.68;;;;;;;;;;5057755;28;20411;-76
2024/03/17 05:53:46;;;;;;;31.17;6.70;;;;;;;;;;5057775;28;20051;-76
2024/03/17 05:56:12;;;;;;;31.20;6.57;;;;;;;;;;5057444;28;20068;-77
2024/03/17 05:58:41;;;;;;;31.55;6.07;;;;;;;;;;5057690;28;20463;-77
2024/03/17 06:01:07;;;;;;;25.60;6.88;;;;;;;;;;5057382;28;20041;-77
2024/03/17 06:03:35;;;;;;;24.42;6.75;;;;;;;;;;5057716;28;20459;-77
2024/03/17 06:06:03;;;;;;;22.13;6.60;;;;;;;;;;5057615;28;20066;-77
2024/03/17 06:08:29;;;;;;;24.23;5.72;;;;;;;;;;5057563;28;20036;-77
2024/03/17 06:10:58;;;;;;;26.92;7.70;;;;;;;;;;5057311;28;20048;-77
2024/03/17 06:13:24;;;;;;;23.17;6.28;;;;;;;;;;5057021;28;20041;-76
2024/03/17 06:15:50;;;;;;;21.23;5.20;;;;;;;;;;5056600;28;20037;-76
2024/03/17 06:18:17;;;;;;;18.63;4.78;;;;;;;;;;5056697;28;20794;-77
2024/03/17 06:20:47;;;;;;;22.25;5.82;;;;;;;;;;5057256;28;20040;-77
2024/03/17 06:23:14;;;;;;;25.40;5.72;;;;;;;;;;5056913;28;20047;-77
2024/03/17 06:25:40;;;;;;;21.33;5.55;;;;;;;;;;5057045;28;20032;-77
2024/03/17 06:28:06;;;;;;;24.45;4.72;;;;;;;;;;5056612;28;20066;-76
2024/03/17 06:30:32;;;;;;;25.55;4.68;;;;;;;;;;5057212;28;20032;-76
2024/03/17 06:32:58;;;;;;;15.15;4.15;;;;;;;;;;5057050;28;20064;-77
2024/03/17 06:35:26;;;;;;;14.70;4.40;;;;;;;;;;5056815;28;20137;-76
2024/03/17 06:37:52;;;;;;;22.05;5.30;;;;;;;;;;5057087;28;20040;-76
2024/03/17 06:40:18;;;;;;;23.45;5.60;;;;;;;;;;5056491;28;20044;-76
2024/03/17 06:42:44;;;;;;;19.13;5.10;;;;;;;;;;5057115;28;20097;-76
2024/03/17 06:45:10;;;;;;;22.90;5.55;;;;;;;;;;5056533;28;20036;-76
2024/03/17 06:47:37;;;;;;;22.52;4.55;;;;;;;;;;5056805;28;20041;-77
2024/03/17 06:50:06;;;;;;;21.65;5.10;;;;;;;;;;5056899;28;20044;-76
2024/03/17 06:52:32;;;;;;;22.77;6.03;;;;;;;;;;5056256;28;20077;-77
2024/03/17 06:54:58;;;;;;;17.55;4.20;;;;;;;;;;5056806;28;20141;-77
2024/03/17 06:57:24;;;;;;;17.83;4.28;;;;;;;;;;5056271;28;20055;-76
2024/03/17 06:59:50;;;;;;;17.00;3.92;;;;;;;;;;5056707;28;20054;-77
2024/03/17 07:02:18;;;;;;;19.65;3.83;;;;;;;;;;5056156;28;20036;-78
2024/03/17 07:04:44;;;;;;;16.13;3.45;;;;;;;;;;5056505;28;20044;-76
2024/03/17 07:07:10;;;;;;;14.68;3.60;;;;;;;;;;5055908;28;20060;-76
2024/03/17 07:09:35;;;;;;;13.23;4.28;;;;;;;;;;5056584;28;20497;-77
2024/03/17 07:12:02;;;;;;;15.80;4.30;;;;;;;;;;5056234;28;20045;-76
2024/03/17 07:14:28;;;;;;;25.17;5.25;;;;;;;;;;5056034;28;20052;-78
2024/03/17 07:16:54;;;;;;;22.13;4.88;;;;;;;;;;5056198;28;20540;-77
2024/03/17 07:19:19;;;;;;;33.33;4.75;;;;;;;;;;5055575;28;20040;-75
2024/03/17 07:21:45;;;;;;;22.80;5.03;;;;;;;;;;5056310;28;20479;-76
2024/03/17 07:24:11;;;;;;;19.90;5.03;;;;;;;;;;5055759;28;20040;-76
2024/03/17 07:26:37;;;;;;;17.83;4.70;;;;;;;;;;5055061;28;20051;-77
2024/03/17 07:29:02;;;;;;;12.52;4.30;;;;;;;;;;5039596;28;20044;-76
2024/03/17 07:31:28;;;;;;;18.65;4.60;;;;;;;;;;5055748;28;20067;-77
2024/03/17 07:33:54;;;;;;;18.15;3.90;;;;;;;;;;5056011;28;20101;-78
2024/03/17 07:36:21;;;;;;;11.30;3.83;;;;;;;;;;5055450;28;20044;-78
2024/03/17 07:38:47;;;;;;;14.00;3.83;;;;;;;;;;5039845;28;20047;-75
2024/03/17 07:41:13;;;;;;;13.88;3.60;;;;;;;;;;5055465;28;20466;-76
2024/03/17 07:43:39;;;;;;;8.73;3.30;;;;;;;;;;5055668;28;20036;-76
2024/03/17 07:46:06;;;;;;;14.93;4.25;;;;;;;;;;5050818;28;20044;-76
2024/03/17 07:48:34;;;;;;;11.90;3.30;;;;;;;;;;5049113;28;20051;-76
2024/03/17 07:51:05;;;;;;;12.25;3.25;;;;;;;;;;5051632;28;20044;-78
2024/03/17 07:53:31;;;;;;;7.30;2.97;;;;;;;;;;5041348;28;20074;-77
2024/03/17 07:55:58;;;;;;;8.35;3.00;;;;;;;;;;5053679;28;20065;-77
2024/03/17 07:58:25;;;;;;;6.25;2.97;;;;;;;;;;5046777;28;20071;-75
2024/03/17 08:01:01;;;;;;;10.45;3.10;;;;;;;;;;5049952;28;20065;-76
2024/03/17 08:03:29;;;;;;;7.25;2.50;;;;;;;;;;5051438;28;20044;-76
2024/03/17 08:05:54;;;;;;;8.93;2.78;;;;;;;;;;5052301;28;20089;-76
2024/03/17 08:08:21;;;;;;;6.80;2.47;;;;;;;;;;5053280;28;20466;-76
2024/03/17 08:10:49;;;;;;;9.80;2.90;;;;;;;;;;5053251;28;20386;-76
2024/03/17 08:13:16;;;;;;;11.50;2.80;;;;;;;;;;5051963;28;20037;-76
2024/03/17 08:15:43;;;;;;;8.18;2.80;;;;;;;;;;5051938;28;20041;-77
2024/03/17 08:18:09;;;;;;;7.88;2.75;;;;;;;;;;5051736;28;20037;-75
2024/03/17 08:20:43;;;;;;;13.75;3.20;;;;;;;;;;5051921;28;20044;-76
2024/03/17 08:23:10;;;;;;;8.25;3.17;;;;;;;;;;5051691;28;20039;-77
2024/03/17 08:25:36;;;;;;;7.38;2.88;;;;;;;;;;5051838;28;20394;-77
2024/03/17 08:28:03;;;;;;;8.85;2.90;;;;;;;;;;5052191;28;20040;-74
2024/03/17 08:30:32;;;;;;;6.75;2.97;;;;;;;;;;5049469;28;20090;-76
2024/03/17 08:32:57;;;;;;;3.80;2.05;;;;;;;;;;5048782;28;20039;-77
2024/03/17 08:35:24;;;;;;;5.28;2.45;;;;;;;;;;5045025;28;20467;-76
2024/03/17 08:37:51;;;;;;;3.47;1.85;;;;;;;;;;5035220;28;20044;-76
2024/03/17 08:40:17;;;;;;;6.38;1.70;;;;;;;;;;5051648;28;20040;-77
2024/03/17 08:42:43;;;;;;;4.50;1.80;;;;;;;;;;5050603;28;20379;-77
2024/03/17 08:45:16;;;;;;;4.82;1.77;;;;;;;;;;5052614;28;20402;-77
2024/03/17 08:47:42;;;;;;;4.53;1.63;;;;;;;;;;5053392;28;20441;-77
2024/03/17 08:50:08;;;;;;;4.82;2.08;;;;;;;;;;5052645;28;20394;-77
2024/03/17 08:52:35;;;;;;;10.13;2.15;;;;;;;;;;5053441;28;20037;-77
2024/03/17 08:55:03;;;;;;;9.68;2.55;;;;;;;;;;5052993;28;20471;-77
2024/03/17 08:57:29;;;;;;;;;;;;;;;;;;5053420;28;20044;-77
2024/03/17 08:59:55;;;;;;;13.20;2.30;;;;;;;;;;5052851;28;19928;-82
2024/03/17 09:02:21;;;;;;;6.03;2.28;;;;;;;;;;5052651;28;20044;-80
2024/03/17 09:04:49;;;;;;;13.02;2.80;;;;;;;;;;5054583;28;20391;-77
2024/03/17 09:07:15;;;;;;;7.47;2.42;;;;;;;;;;5053067;28;20032;-75
2024/03/17 09:09:42;;;;;;;8.60;2.80;;;;;;;;;;5047098;28;20505;-75
2024/03/17 09:12:09;;;;;;;8.52;3.03;;;;;;;;;;5052591;28;20081;-75
2024/03/17 09:14:35;;;;;;;6.68;3.15;;;;;;;;;;5036713;28;20501;-75
2024/03/17 09:17:01;;;;;;;4.65;2.20;;;;;;;;;;5052622;28;20040;-75
2024/03/17 09:19:28;;;;;;;5.28;2.85;;;;;;;;;;5052789;28;20090;-75
2024/03/17 09:21:55;;;;;;;4.10;2.30;;;;;;;;;;5053287;28;20488;-75
2024/03/17 09:24:21;;;;;;;5.45;2.30;;;;;;;;;;5052392;28;20093;-75
2024/03/17 09:26:47;;;;;;;5.20;2.17;;;;;;;;;;5052883;28;20072;-75
2024/03/17 09:29:15;;;;;;;3.72;2.20;;;;;;;;;;5039966;28;20045;-75
2024/03/17 09:31:41;;;;;;;3.83;2.20;;;;;;;;;;5044965;28;20043;-75
2024/03/17 09:34:10;;;;;;;3.95;1.80;;;;;;;;;;5059397;28;20049;-75
2024/03/17 09:36:36;;;;;;;;;;;;;;;;;;5053324;28;20048;-78
2024/03/17 09:39:04;;;;;;;3.22;1.98;;;;;;;;;;5036320;28;19924;-77
2024/03/17 09:41:30;;;;;;;3.03;2.00;;;;;;;;;;5052816;28;20049;-77
2024/03/17 09:43:57;;;;;;;5.07;2.10;;;;;;;;;;5052913;28;20769;-77
2024/03/17 09:46:28;;;;;;;3.33;1.75;;;;;;;;;;5052219;28;20044;-77
2024/03/17 09:48:55;;;;;;;2.92;1.92;;;;;;;;;;5052832;28;20475;-76
2024/03/17 09:51:26;;;;;;;3.90;1.95;;;;;;;;;;5055563;28;20044;-77
2024/03/17 09:53:53;;;;;;;3.25;1.85;;;;;;;;;;5056401;28;20037;-78
2024/03/17 09:56:21;;;;;;;4.57;2.10;;;;;;;;;;5055187;28;20474;-77
2024/03/17 09:58:49;;;;;;;4.63;2.38;;;;;;;;;;5056335;28;20447;-77
2024/03/17 10:01:15;;;;;;;5.33;2.80;;;;;;;;;;5055628;28;20043;-77
2024/03/17 10:04:03;;;;;;;3.83;2.60;;;;;;;;;;5039736;28;20044;-77
2024/03/17 10:06:31;;;;;;;5.60;2.80;;;;;;;;;;5037669;28;20391;-77
2024/03/17 10:08:58;;;;;;;8.13;2.90;;;;;;;;;;5055895;28;20118;-77
2024/03/17 10:11:32;;;;;;;11.13;3.00;;;;;;;;;;5037234;28;20056;-77
2024/03/17 10:14:11;;;;;;;18.52;4.18;;;;;;;;;;5054750;28;20040;-77
2024/03/17 10:16:38;;;;;;;10.80;4.35;;;;;;;;;;5042106;28;20049;-78
2024/03/17 10:19:14;;;;;;;10.40;4.47;;;;;;;;;;5054567;28;20090;-77
2024/03/17 10:21:41;;;;;;;13.95;4.78;;;;;;;;;;5054545;28;20047;-77
2024/03/17 10:24:08;;;;;;;11.98;4.85;;;;;;;;;;5052230;28;20048;-77
2024/03/17 10:26:47;;;;;;;7.18;3.88;;;;;;;;;;5050850;28;20478;-78
2024/03/17 10:29:19;;;;;;;7.50;3.95;;;;;;;;;;5046453;28;20036;-77
2024/03/17 10:31:44;;;;;;;9.23;3.92;;;;;;;;;;5046253;28;20051;-77
2024/03/17 10:34:18;;;;;;;8.77;3.90;;;;;;;;;;5049645;28;20045;-77
2024/03/17 10:36:47;;;;;;;8.23;4.07;;;;;;;;;;5045159;28;20044;-77
2024/03/17 10:39:28;;;;;;;6.05;3.70;;;;;;;;;;5049007;28;20056;-77
2024/03/17 10:41:58;;;;;;;7.68;3.58;;;;;;;;;;5045660;28;20058;-77
2024/03/17 10:44:26;;;;;;;5.90;3.50;;;;;;;;;;5045414;28;20047;-76
2024/03/17 10:46:54;;;;;;;10.20;4.10;;;;;;;;;;5046314;28;20048;-77
2024/03/17 10:49:21;;;;;;;6.07;3.13;;;;;;;;;;5044939;28;20037;-79
2024/03/17 10:51:50;;;;;;;6.97;3.40;;;;;;;;;;5032318;28;20048;-79
2024/03/17 10:54:23;;;;;;;7.90;3.50;;;;;;;;;;5054472;28;20033;-80
2024/03/17 10:56:49;;;;;;;11.35;3.75;;;;;;;;;;5055355;28;20040;-79
2024/03/17 10:59:18;;;;;;;10.75;4.50;;;;;;;;;;5054526;28;20040;-79
2024/03/17 11:01:44;;;;;;;9.98;4.65;;;;;;;;;;5054759;28;20039;-79
2024/03/17 11:04:13;;;;;;;11.82;3.58;;;;;;;;;;5054352;28;20041;-76
2024/03/17 11:06:40;;;;;;;10.60;3.97;;;;;;;;;;5055015;28;20040;-77
2024/03/17 11:09:14;;;;;;;9.38;3.78;;;;;;;;;;5054547;28;20394;-76
2024/03/17 11:11:42;;;;;;;9.32;2.38;;;;;;;;;;5047485;28;20043;-80
2024/03/17 11:14:19;;;;;;;5.85;2.22;;;;;;;;;;5047381;28;20041;-76
2024/03/17 11:16:47;;;;;;;4.78;1.77;;;;;;;;;;5041168;28;20051;-78
2024/03/17 11:19:17;;;;;;;5.77;2.00;;;;;;;;;;5049921;28;20044;-78
2024/03/17 11:21:43;;;;;;;8.02;2.42;;;;;;;;;;5054216;28;20044;-77
2024/03/17 11:24:21;;;;;;;9.23;2.17;;;;;;;;;;5052308;28;20037;-78
2024/03/17 11:26:47;;;;;;;6.00;1.85;;;;;;;;;;5053091;28;20044;-76
2024/03/17 11:29:29;;;;;;;7.53;1.60;;;;;;;;;;5052230;28;20071;-75
2024/03/17 11:31:55;;;;;;;5.07;1.52;;;;;;;;;;5044577;28;20045;-76
2024/03/17 11:34:32;;;;;;;6.10;1.75;;;;;;;;;;5040220;28;20404;-77
2024/03/17 11:37:00;;;;;;;7.32;1.80;;;;;;;;;;5043758;28;20105;-76
2024/03/17 11:39:57;;;;;;;9.10;1.50;;;;;;;;;;5021789;28;20033;-76
2024/03/17 11:42:25;;;;;;;6.40;1.70;;;;;;;;;;5025981;28;20047;-76
2024/03/17 11:45:15;;;;;;;8.98;1.90;;;;;;;;;;5054089;28;20054;-77
2024/03/17 11:47:43;;;;;;;7.50;1.17;;;;;;;;;;5037426;28;20052;-76
2024/03/17 11:50:10;;;;;;;5.13;1.45;;;;;;;;;;5051757;28;20040;-77
2024/03/17 11:52:37;;;;;;;4.97;0.90;;;;;;;;;;5053241;28;20051;-76
2024/03/17 11:55:03;;;;;;;4.38;1.17;;;;;;;;;;5042660;28;20048;-75
2024/03/17 11:57:29;;;;;;;7.68;1.38;;;;;;;;;;5039096;28;20098;-77
2024/03/17 11:59:56;;;;;;;7.18;1.60;;;;;;;;;;5038331;28;20051;-77
2024/03/17 12:02:25;;;;;;;10.57;1.98;;;;;;;;;;5042456;28;20045;-79
2024/03/17 12:04:53;;;;;;;7.63;2.28;;;;;;;;;;5038196;28;20049;-77
2024/03/17 12:07:23;;;;;;;6.47;1.35;;;;;;;;;;5041416;28;20055;-78
2024/03/17 12:09:50;;;;;;;6.18;1.30;;;;;;;;;;5052745;28;20048;-79
2024/03/17 12:12:19;;;;;;;11.25;2.25;;;;;;;;;;5051948;28;20037;-80
2024/03/17 12:14:45;;;;;;;5.20;1.70;;;;;;;;;;5051617;28;20479;-80
2024/03/17 12:17:16;;;;;;;9.95;2.17;;;;;;;;;;5053311;28;20032;-80
2024/03/17 12:19:44;;;;;;;10.55;1.77;;;;;;;;;;5024034;28;20413;-78
2024/03/17 12:22:16;;;;;;;9.95;1.83;;;;;;;;;;5053057;28;20081;-78
2024/03/17 12:24:44;;;;;;;9.63;1.90;;;;;;;;;;5053714;28;20487;-78
2024/03/17 12:27:17;;;;;;;10.50;2.37;;;;;;;;;;5052797;28;20037;-77
2024/03/17 12:29:44;;;;;;;11.52;2.95;;;;;;;;;;5037141;28;20479;-78
2024/03/17 12:32:11;;;;;;;13.73;2.38;;;;;;;;;;5053153;28;20543;-78
2024/03/17 12:34:37;;;;;;;13.70;2.60;;;;;;;;;;5053268;28;20060;-77
2024/03/17 12:37:04;;;;;;;8.02;2.35;;;;;;;;;;5053265;28;20056;-78
2024/03/17 12:39:32;;;;;;;11.35;1.98;;;;;;;;;;5053143;28;20048;-78
2024/03/17 12:42:04;;;;;;;10.85;2.60;;;;;;;;;;5052926;28;20509;-78
2024/03/17 12:44:37;;;;;;;10.32;2.25;;;;;;;;;;5051489;28;20062;-78
2024/03/17 12:47:04;;;;;;;6.63;1.80;;;;;;;;;;5042371;28;20050;-77
2024/03/17 12:49:32;;;;;;;11.38;2.00;;;;;;;;;;5040448;28;20043;-78
2024/03/17 12:51:59;;;;;;;11.23;1.90;;;;;;;;;;5041626;28;20044;-77
2024/03/17 12:54:26;;;;;;;10.00;2.20;;;;;;;;;;5036624;28;20048;-77
2024/03/17 13:00:31;;;;;;;13.55;2.08;;;;;;;;;;5039000;28;20040;-77
2024/03/17 13:02:42;;;;;;;9.32;1.85;;;;;;;;;;5028422;28;20375;-77
2024/03/17 13:05:13;;;;;;;10.27;2.13;;;;;;;;;;5041935;28;20471;-77
2024/03/17 13:07:39;;;;;;;13.50;2.28;;;;;;;;;;5049921;28;20045;-77
2024/03/17 13:10:07;;;;;;;10.80;2.20;;;;;;;;;;5039290;28;20074;-77
2024/03/17 13:12:34;;;;;;;11.25;2.33;;;;;;;;;;5052272;28;20123;-77
2024/03/17 13:15:00;;;;;;;12.70;2.17;;;;;;;;;;5040814;28;20037;-77
2024/03/17 13:17:28;;;;;;;12.13;2.03;;;;;;;;;;5052714;28;20041;-78
2024/03/17 13:19:55;;;;;;;8.77;1.80;;;;;;;;;;5052641;28;20040;-77
2024/03/17 13:22:20;;;;;;;10.90;2.30;;;;;;;;;;5052512;28;20067;-77
2024/03/17 13:24:47;;;;;;;9.57;2.10;;;;;;;;;;5054873;28;20040;-77
2024/03/17 13:27:14;;;;;;;10.80;2.13;;;;;;;;;;5055737;28;20041;-77
2024/03/17 13:29:43;;;;;;;9.50;2.22;;;;;;;;;;5054657;28;20049;-77
2024/03/17 13:32:09;;;;;;;16.70;2.67;;;;;;;;;;5054908;28;20082;-77
2024/03/17 13:34:35;;;;;;;14.30;2.67;;;;;;;;;;5039733;28;20433;-77
2024/03/17 13:37:03;;;;;;;16.65;2.28;;;;;;;;;;5054803;28;20036;-78
2024/03/17 13:39:31;;;;;;;11.87;2.50;;;;;;;;;;5039852;28;20049;-77
2024/03/17 13:42:03;;;;;;;12.65;2.30;;;;;;;;;;5056457;28;20044;-77
2024/03/17 13:44:32;;;;;;;12.88;2.28;;;;;;;;;;5056410;28;20044;-72
2024/03/17 13:47:01;;;;;;;11.40;2.17;;;;;;;;;;5039846;28;20051;-77
2024/03/17 13:49:28;;;;;;;11.07;2.20;;;;;;;;;;5056282;28;20428;-75
2024/03/17 13:51:54;;;;;;;15.25;2.67;;;;;;;;;;5055878;28;20044;-78
2024/03/17 13:54:21;;;;;;;12.95;2.13;;;;;;;;;;5055766;28;20049;-79
2024/03/17 13:56:47;;;;;;;24.27;3.38;;;;;;;;;;5056037;28;20044;-77
2024/03/17 13:59:17;;;;;;;17.13;2.50;;;;;;;;;;5055729;28;20045;-77
2024/03/17 14:01:43;;;;;;;16.92;2.95;;;;;;;;;;5043700;28;20107;-77
2024/03/17 14:04:17;;;;;;;16.98;3.35;;;;;;;;;;5038162;28;20055;-78
2024/03/17 14:06:48;;;;;;;20.52;3.38;;;;;;;;;;5054378;28;20058;-78
2024/03/17 14:09:17;;;;;;;16.92;2.78;;;;;;;;;;5039228;28;20093;-78
2024/03/17 14:11:43;;;;;;;22.52;3.58;;;;;;;;;;5058637;28;20085;-77
2024/03/17 14:14:10;;;;;;;15.43;2.83;;;;;;;;;;5055062;28;20463;-74
2024/03/17 14:16:36;;;;;;;20.55;3.70;;;;;;;;;;5057258;28;20047;-76
2024/03/17 14:19:02;;;;;;;14.85;2.60;;;;;;;;;;5053531;28;20041;-76
2024/03/17 14:21:29;;;;;;;18.45;3.38;;;;;;;;;;5053822;28;20041;-76
2024/03/17 14:23:55;;;;;;;15.48;3.42;;;;;;;;;;5054194;28;20041;-75
2024/03/17 14:26:22;;;;;;;19.35;3.53;;;;;;;;;;5052500;28;20734;-76
2024/03/17 14:28:50;;;;;;;19.38;3.22;;;;;;;;;;5054211;28;20041;-75
2024/03/17 14:31:17;;;;;;;23.52;3.88;;;;;;;;;;5053681;28;20047;-77
2024/03/17 14:33:44;;;;;;;22.00;4.22;;;;;;;;;;5053805;28;20086;-77
2024/03/17 14:36:10;;;;;;;21.80;3.85;;;;;;;;;;5052814;28;20044;-80
2024/03/17 14:38:35;;;;;;;21.35;3.80;;;;;;;;;;5053692;28;20044;-74